sensor_id;sensor_type;location;lat;lon;timestamp;P1;durP1;ratioP1;P2;durP2;ratioP2
8919;SDS011;4495;42.644;23.274;2024-03-17T00:04:01;28.27;;;15.05;;
8919;SDS011;4495;42.644;23.274;2024-03-17T00:06:26;26.20;;;13.18;;
8919;SDS011;4495;42.644;23.274;2024-03-17T00:08:51;28.75;;;13.93;;
8919;SDS011;4495;42.644;23.274;2024-03-17T00:11:17;25.88;;;13.45;;
8919;SDS011;4495;42.644;23.274;2024-03-17T00:13:42;30.65;;;14.65;;
8919;SDS011;4495;42.644;23.274;2024-03-17T00:16:08;24.08;;;12.77;;
8919;SDS011;4495;42.644;23.274;2024-03-17T00:18:34;33.15;;;14.65;;
8919;SDS011;4495;42.644;23.274;2024-03-17T00:21:00;32.20;;;15.32;;
8919;SDS011;4495;42.644;23.274;2024-03-17T00:23:27;35.05;;;15.23;;
8919;SDS011;4495;42.644;23.274;2024-03-17T00:25:54;26.70;;;13.30;;
8919;SDS011;4495;42.644;23.274;2024-03-17T00:28:20;31.50;;;15.20;;
8919;SDS011;4495;42.644;23.274;2024-03-17T00:30:45;31.98;;;14.63;;
8919;SDS011;4495;42.644;23.274;2024-03-17T00:33:11;35.50;;;14.65;;
8919;SDS011;4495;42.644;23.274;2024-03-17T00:35:36;31.58;;;14.77;;
8919;SDS011;4495;42.644;23.274;2024-03-17T00:38:02;31.23;;;13.63;;
8919;SDS011;4495;42.644;23.274;2024-03-17T00:40:35;26.98;;;13.18;;
8919;SDS011;4495;42.644;23.274;2024-03-17T00:43:00;28.20;;;13.07;;
8919;SDS011;4495;42.644;23.274;2024-03-17T00:45:25;24.17;;;12.38;;
8919;SDS011;4495;42.644;23.274;2024-03-17T00:47:51;29.05;;;12.23;;
8919;SDS011;4495;42.644;23.274;2024-03-17T00:50:16;21.40;;;10.65;;
8919;SDS011;4495;42.644;23.274;2024-03-17T00:52:42;26.00;;;12.18;;
8919;SDS011;4495;42.644;23.274;2024-03-17T00:55:07;25.92;;;11.68;;
8919;SDS011;4495;42.644;23.274;2024-03-17T00:57:35;23.02;;;12.30;;
8919;SDS011;4495;42.644;23.274;2024-03-17T01:00:02;25.95;;;12.05;;
8919;SDS011;4495;42.644;23.274;2024-03-17T01:04:53;19.27;;;10.13;;
8919;SDS011;4495;42.644;23.274;2024-03-17T01:07:19;24.55;;;11.55;;
8919;SDS011;4495;42.644;23.274;2024-03-17T01:09:46;26.92;;;13.05;;
8919;SDS011;4495;42.644;23.274;2024-03-17T01:12:12;30.15;;;11.57;;
8919;SDS011;4495;42.644;23.274;2024-03-17T01:14:38;27.13;;;12.90;;
8919;SDS011;4495;42.644;23.274;2024-03-17T01:17:03;28.88;;;14.57;;
8919;SDS011;4495;42.644;23.274;2024-03-17T01:19:30;31.50;;;14.50;;
8919;SDS011;4495;42.644;23.274;2024-03-17T01:21:55;29.85;;;14.13;;
8919;SDS011;4495;42.644;23.274;2024-03-17T01:24:21;31.10;;;13.13;;
8919;SDS011;4495;42.644;23.274;2024-03-17T01:26:47;26.38;;;13.50;;
8919;SDS011;4495;42.644;23.274;2024-03-17T01:29:13;26.60;;;12.65;;
8919;SDS011;4495;42.644;23.274;2024-03-17T01:31:38;24.95;;;12.07;;
8919;SDS011;4495;42.644;23.274;2024-03-17T01:34:04;30.63;;;13.88;;
8919;SDS011;4495;42.644;23.274;2024-03-17T01:36:29;28.83;;;12.30;;
8919;SDS011;4495;42.644;23.274;2024-03-17T01:38:55;27.92;;;12.82;;
8919;SDS011;4495;42.644;23.274;2024-03-17T01:41:20;26.10;;;13.20;;
8919;SDS011;4495;42.644;23.274;2024-03-17T01:43:46;26.00;;;12.65;;
8919;SDS011;4495;42.644;23.274;2024-03-17T01:46:12;32.55;;;12.60;;
8919;SDS011;4495;42.644;23.274;2024-03-17T01:48:40;21.90;;;11.05;;
8919;SDS011;4495;42.644;23.274;2024-03-17T01:51:06;25.95;;;11.95;;
8919;SDS011;4495;42.644;23.274;2024-03-17T01:53:33;22.52;;;11.38;;
8919;SDS011;4495;42.644;23.274;2024-03-17T01:55:59;28.63;;;12.00;;
8919;SDS011;4495;42.644;23.274;2024-03-17T01:58:25;24.00;;;11.35;;
8919;SDS011;4495;42.644;23.274;2024-03-17T02:00:52;26.95;;;12.38;;
8919;SDS011;4495;42.644;23.274;2024-03-17T02:03:17;26.45;;;12.40;;
8919;SDS011;4495;42.644;23.274;2024-03-17T02:05:43;34.45;;;15.32;;
8919;SDS011;4495;42.644;23.274;2024-03-17T02:08:09;27.17;;;12.43;;
8919;SDS011;4495;42.644;23.274;2024-03-17T02:10:36;29.20;;;12.88;;
8919;SDS011;4495;42.644;23.274;2024-03-17T02:13:02;31.98;;;13.30;;
8919;SDS011;4495;42.644;23.274;2024-03-17T02:15:28;27.08;;;11.77;;
8919;SDS011;4495;42.644;23.274;2024-03-17T02:17:54;26.75;;;11.73;;
8919;SDS011;4495;42.644;23.274;2024-03-17T02:20:20;27.88;;;11.90;;
8919;SDS011;4495;42.644;23.274;2024-03-17T02:22:49;25.85;;;12.05;;
8919;SDS011;4495;42.644;23.274;2024-03-17T02:25:15;28.80;;;12.80;;
8919;SDS011;4495;42.644;23.274;2024-03-17T02:27:40;26.92;;;13.40;;
8919;SDS011;4495;42.644;23.274;2024-03-17T02:30:06;29.30;;;13.52;;
8919;SDS011;4495;42.644;23.274;2024-03-17T02:32:34;26.80;;;13.25;;
8919;SDS011;4495;42.644;23.274;2024-03-17T02:35:00;35.60;;;14.27;;
8919;SDS011;4495;42.644;23.274;2024-03-17T02:37:25;32.70;;;12.82;;
8919;SDS011;4495;42.644;23.274;2024-03-17T02:39:51;27.40;;;12.27;;
8919;SDS011;4495;42.644;23.274;2024-03-17T02:42:17;28.38;;;13.13;;
8919;SDS011;4495;42.644;23.274;2024-03-17T02:44:43;30.85;;;14.10;;
8919;SDS011;4495;42.644;23.274;2024-03-17T02:47:08;27.48;;;14.15;;
8919;SDS011;4495;42.644;23.274;2024-03-17T02:49:34;24.55;;;11.77;;
8919;SDS011;4495;42.644;23.274;2024-03-17T02:52:04;28.15;;;10.90;;
8919;SDS011;4495;42.644;23.274;2024-03-17T02:54:31;26.45;;;12.20;;
8919;SDS011;4495;42.644;23.274;2024-03-17T02:56:57;28.27;;;12.23;;
8919;SDS011;4495;42.644;23.274;2024-03-17T02:59:22;31.42;;;14.70;;
8919;SDS011;4495;42.644;23.274;2024-03-17T03:01:48;33.47;;;13.00;;
8919;SDS011;4495;42.644;23.274;2024-03-17T03:04:13;28.90;;;12.52;;
8919;SDS011;4495;42.644;23.274;2024-03-17T03:06:39;25.33;;;10.95;;
8919;SDS011;4495;42.644;23.274;2024-03-17T03:09:05;24.73;;;10.45;;
8919;SDS011;4495;42.644;23.274;2024-03-17T03:11:37;18.42;;;9.50;;
8919;SDS011;4495;42.644;23.274;2024-03-17T03:14:03;21.83;;;8.50;;
8919;SDS011;4495;42.644;23.274;2024-03-17T03:16:28;20.13;;;9.50;;
8919;SDS011;4495;42.644;23.274;2024-03-17T03:18:54;21.27;;;10.05;;
8919;SDS011;4495;42.644;23.274;2024-03-17T03:21:19;21.10;;;9.70;;
8919;SDS011;4495;42.644;23.274;2024-03-17T03:23:46;24.23;;;11.43;;
8919;SDS011;4495;42.644;23.274;2024-03-17T03:26:12;26.98;;;10.70;;
8919;SDS011;4495;42.644;23.274;2024-03-17T03:28:37;20.08;;;9.55;;
8919;SDS011;4495;42.644;23.274;2024-03-17T03:31:03;20.48;;;10.20;;
8919;SDS011;4495;42.644;23.274;2024-03-17T03:33:29;20.10;;;9.98;;
8919;SDS011;4495;42.644;23.274;2024-03-17T03:35:54;16.33;;;8.13;;
8919;SDS011;4495;42.644;23.274;2024-03-17T03:38:20;19.45;;;8.07;;
8919;SDS011;4495;42.644;23.274;2024-03-17T03:43:13;14.80;;;7.05;;
8919;SDS011;4495;42.644;23.274;2024-03-17T03:45:38;16.13;;;8.23;;
8919;SDS011;4495;42.644;23.274;2024-03-17T03:48:05;19.20;;;9.57;;
8919;SDS011;4495;42.644;23.274;2024-03-17T03:50:31;22.42;;;11.10;;
8919;SDS011;4495;42.644;23.274;2024-03-17T03:52:58;28.05;;;13.18;;
8919;SDS011;4495;42.644;23.274;2024-03-17T03:55:24;25.40;;;12.50;;
8919;SDS011;4495;42.644;23.274;2024-03-17T03:57:49;23.05;;;11.75;;
8919;SDS011;4495;42.644;23.274;2024-03-17T04:00:17;26.30;;;11.88;;
8919;SDS011;4495;42.644;23.274;2024-03-17T04:02:47;29.00;;;13.38;;
8919;SDS011;4495;42.644;23.274;2024-03-17T04:05:14;26.40;;;12.00;;
8919;SDS011;4495;42.644;23.274;2024-03-17T04:07:40;30.98;;;14.10;;
8919;SDS011;4495;42.644;23.274;2024-03-17T04:10:08;31.98;;;13.95;;
8919;SDS011;4495;42.644;23.274;2024-03-17T04:12:34;28.20;;;14.68;;
8919;SDS011;4495;42.644;23.274;2024-03-17T04:15:00;31.67;;;13.60;;
8919;SDS011;4495;42.644;23.274;2024-03-17T04:17:26;29.05;;;12.88;;
8919;SDS011;4495;42.644;23.274;2024-03-17T04:19:52;27.77;;;13.20;;
8919;SDS011;4495;42.644;23.274;2024-03-17T04:22:19;28.65;;;13.25;;
8919;SDS011;4495;42.644;23.274;2024-03-17T04:24:46;28.38;;;12.40;;
8919;SDS011;4495;42.644;23.274;2024-03-17T04:27:12;24.50;;;12.02;;
8919;SDS011;4495;42.644;23.274;2024-03-17T04:29:38;25.75;;;11.57;;
8919;SDS011;4495;42.644;23.274;2024-03-17T04:34:31;28.88;;;10.77;;
8919;SDS011;4495;42.644;23.274;2024-03-17T04:36:57;27.98;;;12.23;;
8919;SDS011;4495;42.644;23.274;2024-03-17T04:39:23;25.67;;;10.73;;
8919;SDS011;4495;42.644;23.274;2024-03-17T04:41:49;24.08;;;10.77;;
8919;SDS011;4495;42.644;23.274;2024-03-17T04:44:15;23.63;;;11.50;;
8919;SDS011;4495;42.644;23.274;2024-03-17T04:46:41;25.80;;;12.65;;
8919;SDS011;4495;42.644;23.274;2024-03-17T04:49:06;24.13;;;11.07;;
8919;SDS011;4495;42.644;23.274;2024-03-17T04:51:33;23.60;;;10.43;;
8919;SDS011;4495;42.644;23.274;2024-03-17T04:53:58;25.15;;;11.05;;
8919;SDS011;4495;42.644;23.274;2024-03-17T04:56:24;26.60;;;12.43;;
8919;SDS011;4495;42.644;23.274;2024-03-17T04:58:50;27.77;;;11.90;;
8919;SDS011;4495;42.644;23.274;2024-03-17T05:01:15;25.73;;;12.55;;
8919;SDS011;4495;42.644;23.274;2024-03-17T05:03:41;29.20;;;12.27;;
8919;SDS011;4495;42.644;23.274;2024-03-17T05:06:06;24.20;;;12.30;;
8919;SDS011;4495;42.644;23.274;2024-03-17T05:08:32;28.27;;;11.35;;
8919;SDS011;4495;42.644;23.274;2024-03-17T05:11:00;21.65;;;9.80;;
8919;SDS011;4495;42.644;23.274;2024-03-17T05:13:26;23.98;;;11.35;;
8919;SDS011;4495;42.644;23.274;2024-03-17T05:15:55;22.17;;;11.43;;
8919;SDS011;4495;42.644;23.274;2024-03-17T05:18:21;23.92;;;11.13;;
8919;SDS011;4495;42.644;23.274;2024-03-17T05:20:47;24.33;;;12.00;;
8919;SDS011;4495;42.644;23.274;2024-03-17T05:23:21;26.65;;;10.77;;
8919;SDS011;4495;42.644;23.274;2024-03-17T05:25:53;24.48;;;11.77;;
8919;SDS011;4495;42.644;23.274;2024-03-17T05:28:19;24.00;;;10.95;;
8919;SDS011;4495;42.644;23.274;2024-03-17T05:30:45;22.80;;;10.45;;
8919;SDS011;4495;42.644;23.274;2024-03-17T05:33:10;23.65;;;12.00;;
8919;SDS011;4495;42.644;23.274;2024-03-17T05:35:35;25.83;;;12.02;;
8919;SDS011;4495;42.644;23.274;2024-03-17T05:38:01;20.65;;;9.82;;
8919;SDS011;4495;42.644;23.274;2024-03-17T05:40:27;25.10;;;12.25;;
8919;SDS011;4495;42.644;23.274;2024-03-17T05:42:52;24.13;;;10.93;;
8919;SDS011;4495;42.644;23.274;2024-03-17T05:45:18;22.30;;;10.75;;
8919;SDS011;4495;42.644;23.274;2024-03-17T05:47:43;27.30;;;12.15;;
8919;SDS011;4495;42.644;23.274;2024-03-17T05:50:09;30.92;;;12.15;;
8919;SDS011;4495;42.644;23.274;2024-03-17T05:52:34;26.95;;;11.95;;
8919;SDS011;4495;42.644;23.274;2024-03-17T05:55:00;28.52;;;12.70;;
8919;SDS011;4495;42.644;23.274;2024-03-17T05:57:25;22.48;;;10.88;;
8919;SDS011;4495;42.644;23.274;2024-03-17T05:59:51;27.33;;;12.05;;
8919;SDS011;4495;42.644;23.274;2024-03-17T06:02:16;26.35;;;11.68;;
8919;SDS011;4495;42.644;23.274;2024-03-17T06:04:44;28.02;;;12.68;;
8919;SDS011;4495;42.644;23.274;2024-03-17T06:07:09;27.08;;;11.85;;
8919;SDS011;4495;42.644;23.274;2024-03-17T06:09:35;21.63;;;10.93;;
8919;SDS011;4495;42.644;23.274;2024-03-17T06:12:00;22.60;;;12.30;;
8919;SDS011;4495;42.644;23.274;2024-03-17T06:14:25;28.88;;;12.45;;
8919;SDS011;4495;42.644;23.274;2024-03-17T06:16:51;22.48;;;11.60;;
8919;SDS011;4495;42.644;23.274;2024-03-17T06:19:16;23.48;;;11.73;;
8919;SDS011;4495;42.644;23.274;2024-03-17T06:21:42;28.02;;;12.82;;
8919;SDS011;4495;42.644;23.274;2024-03-17T06:24:07;26.30;;;12.85;;
8919;SDS011;4495;42.644;23.274;2024-03-17T06:26:33;27.33;;;13.52;;
8919;SDS011;4495;42.644;23.274;2024-03-17T06:29:02;24.40;;;12.70;;
8919;SDS011;4495;42.644;23.274;2024-03-17T06:31:28;28.52;;;12.80;;
8919;SDS011;4495;42.644;23.274;2024-03-17T06:33:53;22.98;;;11.23;;
8919;SDS011;4495;42.644;23.274;2024-03-17T06:36:19;22.67;;;12.45;;
8919;SDS011;4495;42.644;23.274;2024-03-17T06:38:44;25.73;;;12.65;;
8919;SDS011;4495;42.644;23.274;2024-03-17T06:41:10;23.73;;;11.90;;
8919;SDS011;4495;42.644;23.274;2024-03-17T06:43:35;21.55;;;11.70;;
8919;SDS011;4495;42.644;23.274;2024-03-17T06:46:01;24.17;;;11.98;;
8919;SDS011;4495;42.644;23.274;2024-03-17T06:48:27;22.75;;;12.20;;
8919;SDS011;4495;42.644;23.274;2024-03-17T06:50:53;24.65;;;11.75;;
8919;SDS011;4495;42.644;23.274;2024-03-17T06:53:23;24.92;;;10.98;;
8919;SDS011;4495;42.644;23.274;2024-03-17T06:55:57;24.80;;;11.15;;
8919;SDS011;4495;42.644;23.274;2024-03-17T06:58:24;22.98;;;10.85;;
8919;SDS011;4495;42.644;23.274;2024-03-17T07:00:55;20.38;;;11.95;;
8919;SDS011;4495;42.644;23.274;2024-03-17T07:03:25;24.30;;;11.93;;
8919;SDS011;4495;42.644;23.274;2024-03-17T07:05:51;24.70;;;11.75;;
8919;SDS011;4495;42.644;23.274;2024-03-17T07:08:18;22.17;;;11.52;;
8919;SDS011;4495;42.644;23.274;2024-03-17T07:10:54;19.45;;;11.02;;
8919;SDS011;4495;42.644;23.274;2024-03-17T07:13:28;20.33;;;10.05;;
8919;SDS011;4495;42.644;23.274;2024-03-17T07:15:55;21.02;;;11.70;;
8919;SDS011;4495;42.644;23.274;2024-03-17T07:18:21;25.65;;;11.80;;
8919;SDS011;4495;42.644;23.274;2024-03-17T07:20:46;22.88;;;10.50;;
8919;SDS011;4495;42.644;23.274;2024-03-17T07:25:38;18.02;;;10.30;;
8919;SDS011;4495;42.644;23.274;2024-03-17T07:28:04;23.10;;;10.73;;
8919;SDS011;4495;42.644;23.274;2024-03-17T07:30:29;22.85;;;11.25;;
8919;SDS011;4495;42.644;23.274;2024-03-17T07:32:55;20.50;;;10.77;;
8919;SDS011;4495;42.644;23.274;2024-03-17T07:35:20;18.38;;;9.98;;
8919;SDS011;4495;42.644;23.274;2024-03-17T07:37:46;23.88;;;11.98;;
8919;SDS011;4495;42.644;23.274;2024-03-17T07:40:12;20.42;;;11.40;;
8919;SDS011;4495;42.644;23.274;2024-03-17T07:42:37;21.20;;;10.93;;
8919;SDS011;4495;42.644;23.274;2024-03-17T07:45:02;21.02;;;10.43;;
8919;SDS011;4495;42.644;23.274;2024-03-17T07:47:29;24.65;;;12.45;;
8919;SDS011;4495;42.644;23.274;2024-03-17T07:50:03;19.85;;;10.52;;
8919;SDS011;4495;42.644;23.274;2024-03-17T07:52:30;24.45;;;11.32;;
8919;SDS011;4495;42.644;23.274;2024-03-17T07:54:56;25.67;;;12.82;;
8919;SDS011;4495;42.644;23.274;2024-03-17T07:57:22;21.98;;;12.48;;
8919;SDS011;4495;42.644;23.274;2024-03-17T07:59:49;28.17;;;13.98;;
8919;SDS011;4495;42.644;23.274;2024-03-17T08:02:16;30.77;;;14.38;;
8919;SDS011;4495;42.644;23.274;2024-03-17T08:04:41;27.58;;;14.48;;
8919;SDS011;4495;42.644;23.274;2024-03-17T08:07:07;27.58;;;14.73;;
8919;SDS011;4495;42.644;23.274;2024-03-17T08:09:33;28.80;;;15.32;;
8919;SDS011;4495;42.644;23.274;2024-03-17T08:11:58;30.90;;;14.60;;
8919;SDS011;4495;42.644;23.274;2024-03-17T08:14:23;29.98;;;15.35;;
8919;SDS011;4495;42.644;23.274;2024-03-17T08:16:49;31.60;;;15.40;;
8919;SDS011;4495;42.644;23.274;2024-03-17T08:19:14;26.48;;;14.68;;
8919;SDS011;4495;42.644;23.274;2024-03-17T08:21:39;31.33;;;14.65;;
8919;SDS011;4495;42.644;23.274;2024-03-17T08:24:05;30.17;;;15.18;;
8919;SDS011;4495;42.644;23.274;2024-03-17T08:26:30;31.00;;;15.90;;
8919;SDS011;4495;42.644;23.274;2024-03-17T08:28:56;30.40;;;15.88;;
8919;SDS011;4495;42.644;23.274;2024-03-17T08:31:22;28.17;;;15.15;;
8919;SDS011;4495;42.644;23.274;2024-03-17T08:33:47;32.17;;;16.10;;
8919;SDS011;4495;42.644;23.274;2024-03-17T08:36:13;30.52;;;15.73;;
8919;SDS011;4495;42.644;23.274;2024-03-17T08:38:43;30.35;;;16.33;;
8919;SDS011;4495;42.644;23.274;2024-03-17T08:41:09;28.08;;;15.27;;
8919;SDS011;4495;42.644;23.274;2024-03-17T08:43:35;31.65;;;15.48;;
8919;SDS011;4495;42.644;23.274;2024-03-17T08:46:03;28.73;;;14.60;;
8919;SDS011;4495;42.644;23.274;2024-03-17T08:48:33;25.60;;;13.43;;
8919;SDS011;4495;42.644;23.274;2024-03-17T08:51:01;27.48;;;14.48;;
8919;SDS011;4495;42.644;23.274;2024-03-17T08:53:27;28.15;;;15.82;;
8919;SDS011;4495;42.644;23.274;2024-03-17T08:55:53;24.90;;;12.95;;
8919;SDS011;4495;42.644;23.274;2024-03-17T08:58:20;24.75;;;12.68;;
8919;SDS011;4495;42.644;23.274;2024-03-17T09:00:45;25.50;;;13.80;;
8919;SDS011;4495;42.644;23.274;2024-03-17T09:03:11;23.25;;;12.35;;
8919;SDS011;4495;42.644;23.274;2024-03-17T09:05:38;19.70;;;8.75;;
8919;SDS011;4495;42.644;23.274;2024-03-17T09:08:04;18.63;;;10.27;;
8919;SDS011;4495;42.644;23.274;2024-03-17T09:12:56;14.33;;;8.03;;
8919;SDS011;4495;42.644;23.274;2024-03-17T09:15:21;15.68;;;8.45;;
8919;SDS011;4495;42.644;23.274;2024-03-17T09:17:47;14.80;;;7.80;;
8919;SDS011;4495;42.644;23.274;2024-03-17T09:20:12;15.05;;;7.20;;
8919;SDS011;4495;42.644;23.274;2024-03-17T09:22:40;18.23;;;8.68;;
8919;SDS011;4495;42.644;23.274;2024-03-17T09:25:08;15.80;;;8.63;;
8919;SDS011;4495;42.644;23.274;2024-03-17T09:27:34;15.95;;;8.77;;
8919;SDS011;4495;42.644;23.274;2024-03-17T09:30:02;11.20;;;6.97;;
8919;SDS011;4495;42.644;23.274;2024-03-17T09:32:31;17.33;;;8.80;;
8919;SDS011;4495;42.644;23.274;2024-03-17T09:34:57;15.20;;;7.22;;
8919;SDS011;4495;42.644;23.274;2024-03-17T09:37:23;16.45;;;7.88;;
8919;SDS011;4495;42.644;23.274;2024-03-17T09:39:48;13.05;;;6.90;;
8919;SDS011;4495;42.644;23.274;2024-03-17T09:42:18;15.05;;;6.95;;
8919;SDS011;4495;42.644;23.274;2024-03-17T09:44:47;12.60;;;6.40;;
8919;SDS011;4495;42.644;23.274;2024-03-17T09:47:20;14.30;;;6.35;;
8919;SDS011;4495;42.644;23.274;2024-03-17T09:49:46;9.98;;;6.25;;
8919;SDS011;4495;42.644;23.274;2024-03-17T09:52:18;12.07;;;5.60;;
8919;SDS011;4495;42.644;23.274;2024-03-17T09:54:50;10.50;;;4.90;;
8919;SDS011;4495;42.644;23.274;2024-03-17T09:57:21;8.75;;;4.88;;
8919;SDS011;4495;42.644;23.274;2024-03-17T10:02:17;7.22;;;3.50;;
8919;SDS011;4495;42.644;23.274;2024-03-17T10:04:45;7.18;;;3.80;;
8919;SDS011;4495;42.644;23.274;2024-03-17T10:07:11;6.72;;;3.05;;
8919;SDS011;4495;42.644;23.274;2024-03-17T10:09:36;2.90;;;2.05;;
8919;SDS011;4495;42.644;23.274;2024-03-17T10:12:02;4.45;;;2.35;;
8919;SDS011;4495;42.644;23.274;2024-03-17T10:14:28;4.88;;;2.65;;
8919;SDS011;4495;42.644;23.274;2024-03-17T10:16:53;4.00;;;1.90;;
8919;SDS011;4495;42.644;23.274;2024-03-17T10:19:23;5.05;;;2.88;;
8919;SDS011;4495;42.644;23.274;2024-03-17T10:21:50;3.83;;;2.28;;
8919;SDS011;4495;42.644;23.274;2024-03-17T10:24:25;5.70;;;2.85;;
8919;SDS011;4495;42.644;23.274;2024-03-17T10:26:57;6.22;;;3.35;;
8919;SDS011;4495;42.644;23.274;2024-03-17T10:29:25;7.65;;;3.42;;
8919;SDS011;4495;42.644;23.274;2024-03-17T10:34:21;4.88;;;3.20;;
8919;SDS011;4495;42.644;23.274;2024-03-17T10:36:50;7.97;;;3.88;;
8919;SDS011;4495;42.644;23.274;2024-03-17T10:39:31;5.95;;;3.55;;
8919;SDS011;4495;42.644;23.274;2024-03-17T10:41:58;9.05;;;3.90;;
8919;SDS011;4495;42.644;23.274;2024-03-17T10:44:28;8.27;;;4.63;;
8919;SDS011;4495;42.644;23.274;2024-03-17T10:46:55;6.20;;;3.38;;
8919;SDS011;4495;42.644;23.274;2024-03-17T10:51:58;4.82;;;2.50;;
8919;SDS011;4495;42.644;23.274;2024-03-17T10:54:25;4.97;;;2.85;;
8919;SDS011;4495;42.644;23.274;2024-03-17T10:56:54;4.45;;;2.67;;
8919;SDS011;4495;42.644;23.274;2024-03-17T10:59:20;5.45;;;3.13;;
8919;SDS011;4495;42.644;23.274;2024-03-17T11:01:53;7.22;;;3.55;;
8919;SDS011;4495;42.644;23.274;2024-03-17T11:06:46;5.68;;;3.67;;
8919;SDS011;4495;42.644;23.274;2024-03-17T11:09:13;6.28;;;4.03;;
8919;SDS011;4495;42.644;23.274;2024-03-17T11:11:41;6.88;;;3.70;;
8919;SDS011;4495;42.644;23.274;2024-03-17T11:14:26;7.80;;;4.35;;
8919;SDS011;4495;42.644;23.274;2024-03-17T11:16:52;8.73;;;4.50;;
8919;SDS011;4495;42.644;23.274;2024-03-17T11:19:18;6.97;;;4.25;;
8919;SDS011;4495;42.644;23.274;2024-03-17T11:21:44;7.55;;;4.28;;
8919;SDS011;4495;42.644;23.274;2024-03-17T11:24:21;7.20;;;4.20;;
8919;SDS011;4495;42.644;23.274;2024-03-17T11:26:47;6.97;;;4.00;;
8919;SDS011;4495;42.644;23.274;2024-03-17T11:29:28;8.93;;;5.20;;
8919;SDS011;4495;42.644;23.274;2024-03-17T11:31:54;8.50;;;4.68;;
8919;SDS011;4495;42.644;23.274;2024-03-17T11:34:30;7.25;;;4.30;;
8919;SDS011;4495;42.644;23.274;2024-03-17T11:36:58;7.65;;;4.20;;
8919;SDS011;4495;42.644;23.274;2024-03-17T11:42:14;6.43;;;4.03;;
8919;SDS011;4495;42.644;23.274;2024-03-17T11:44:42;8.35;;;3.88;;
8919;SDS011;4495;42.644;23.274;2024-03-17T11:47:35;7.05;;;3.65;;
8919;SDS011;4495;42.644;23.274;2024-03-17T11:50:03;4.63;;;2.85;;
8919;SDS011;4495;42.644;23.274;2024-03-17T11:52:29;5.68;;;3.05;;
8919;SDS011;4495;42.644;23.274;2024-03-17T11:54:55;4.93;;;2.70;;
8919;SDS011;4495;42.644;23.274;2024-03-17T11:57:21;5.25;;;3.08;;
8919;SDS011;4495;42.644;23.274;2024-03-17T11:59:48;5.05;;;3.08;;
8919;SDS011;4495;42.644;23.274;2024-03-17T12:04:51;4.25;;;3.17;;
8919;SDS011;4495;42.644;23.274;2024-03-17T12:07:24;5.43;;;3.38;;
8919;SDS011;4495;42.644;23.274;2024-03-17T12:09:50;5.10;;;3.17;;
8919;SDS011;4495;42.644;23.274;2024-03-17T12:12:26;6.07;;;3.88;;
8919;SDS011;4495;42.644;23.274;2024-03-17T12:15:02;6.05;;;3.58;;
8919;SDS011;4495;42.644;23.274;2024-03-17T12:17:30;5.75;;;3.25;;
8919;SDS011;4495;42.644;23.274;2024-03-17T12:19:56;4.78;;;2.85;;
8919;SDS011;4495;42.644;23.274;2024-03-17T12:22:22;5.45;;;3.38;;
8919;SDS011;4495;42.644;23.274;2024-03-17T12:24:50;5.15;;;3.20;;
8919;SDS011;4495;42.644;23.274;2024-03-17T12:27:20;4.55;;;3.28;;
8919;SDS011;4495;42.644;23.274;2024-03-17T12:29:53;6.10;;;3.75;;
8919;SDS011;4495;42.644;23.274;2024-03-17T12:32:20;5.72;;;3.00;;
8919;SDS011;4495;42.644;23.274;2024-03-17T12:34:49;5.78;;;3.08;;
8919;SDS011;4495;42.644;23.274;2024-03-17T12:37:17;6.13;;;3.03;;
8919;SDS011;4495;42.644;23.274;2024-03-17T12:39:43;7.15;;;3.70;;
8919;SDS011;4495;42.644;23.274;2024-03-17T12:42:10;5.43;;;2.90;;
8919;SDS011;4495;42.644;23.274;2024-03-17T12:44:39;7.10;;;3.47;;
8919;SDS011;4495;42.644;23.274;2024-03-17T12:47:15;6.13;;;3.10;;
8919;SDS011;4495;42.644;23.274;2024-03-17T12:49:48;6.40;;;3.50;;
8919;SDS011;4495;42.644;23.274;2024-03-17T12:52:24;5.55;;;3.35;;
8919;SDS011;4495;42.644;23.274;2024-03-17T12:57:41;8.73;;;3.47;;
8919;SDS011;4495;42.644;23.274;2024-03-17T13:00:25;7.47;;;3.67;;
8919;SDS011;4495;42.644;23.274;2024-03-17T13:02:57;4.88;;;3.05;;
8919;SDS011;4495;42.644;23.274;2024-03-17T13:05:23;6.25;;;3.45;;
8919;SDS011;4495;42.644;23.274;2024-03-17T13:07:49;10.80;;;3.50;;
8919;SDS011;4495;42.644;23.274;2024-03-17T13:10:16;5.93;;;2.92;;
8919;SDS011;4495;42.644;23.274;2024-03-17T13:12:46;7.25;;;3.78;;
8919;SDS011;4495;42.644;23.274;2024-03-17T13:15:13;6.30;;;3.72;;
8919;SDS011;4495;42.644;23.274;2024-03-17T13:17:40;6.72;;;4.32;;
8919;SDS011;4495;42.644;23.274;2024-03-17T13:20:13;4.97;;;3.70;;
8919;SDS011;4495;42.644;23.274;2024-03-17T13:22:40;5.80;;;3.75;;
8919;SDS011;4495;42.644;23.274;2024-03-17T13:25:22;5.70;;;3.45;;
8919;SDS011;4495;42.644;23.274;2024-03-17T13:27:50;6.32;;;3.72;;
8919;SDS011;4495;42.644;23.274;2024-03-17T13:30:17;7.63;;;4.43;;
8919;SDS011;4495;42.644;23.274;2024-03-17T13:32:43;7.15;;;4.28;;
8919;SDS011;4495;42.644;23.274;2024-03-17T13:35:16;7.25;;;4.82;;
8919;SDS011;4495;42.644;23.274;2024-03-17T13:37:45;9.05;;;4.63;;
8919;SDS011;4495;42.644;23.274;2024-03-17T13:40:12;8.35;;;5.15;;
8919;SDS011;4495;42.644;23.274;2024-03-17T13:42:41;12.77;;;6.53;;
8919;SDS011;4495;42.644;23.274;2024-03-17T13:45:14;10.43;;;6.35;;
8919;SDS011;4495;42.644;23.274;2024-03-17T13:47:39;10.52;;;5.53;;
8919;SDS011;4495;42.644;23.274;2024-03-17T13:50:06;10.55;;;4.97;;
8919;SDS011;4495;42.644;23.274;2024-03-17T13:52:39;9.35;;;5.10;;
8919;SDS011;4495;42.644;23.274;2024-03-17T13:55:05;10.05;;;5.70;;
8919;SDS011;4495;42.644;23.274;2024-03-17T13:57:34;11.15;;;5.18;;
8919;SDS011;4495;42.644;23.274;2024-03-17T13:59:59;11.38;;;5.75;;
8919;SDS011;4495;42.644;23.274;2024-03-17T14:02:25;9.55;;;5.43;;
8919;SDS011;4495;42.644;23.274;2024-03-17T14:04:50;6.90;;;4.68;;
8919;SDS011;4495;42.644;23.274;2024-03-17T14:07:16;8.27;;;4.53;;
8919;SDS011;4495;42.644;23.274;2024-03-17T14:09:41;9.52;;;5.00;;
8919;SDS011;4495;42.644;23.274;2024-03-17T14:12:07;9.52;;;5.65;;
8919;SDS011;4495;42.644;23.274;2024-03-17T14:14:33;11.43;;;6.75;;
8919;SDS011;4495;42.644;23.274;2024-03-17T14:16:58;11.98;;;7.43;;
8919;SDS011;4495;42.644;23.274;2024-03-17T14:19:24;14.57;;;7.05;;
8919;SDS011;4495;42.644;23.274;2024-03-17T14:21:49;13.32;;;7.32;;
8919;SDS011;4495;42.644;23.274;2024-03-17T14:24:16;10.20;;;5.47;;
8919;SDS011;4495;42.644;23.274;2024-03-17T14:26:41;10.32;;;6.45;;
8919;SDS011;4495;42.644;23.274;2024-03-17T14:29:07;8.88;;;5.78;;
8919;SDS011;4495;42.644;23.274;2024-03-17T14:31:32;10.90;;;5.85;;
8919;SDS011;4495;42.644;23.274;2024-03-17T14:34:01;13.38;;;6.55;;
8919;SDS011;4495;42.644;23.274;2024-03-17T14:36:33;16.65;;;9.32;;
8919;SDS011;4495;42.644;23.274;2024-03-17T14:39:01;11.63;;;6.47;;
8919;SDS011;4495;42.644;23.274;2024-03-17T14:41:30;12.45;;;6.10;;
8919;SDS011;4495;42.644;23.274;2024-03-17T14:43:56;9.93;;;4.00;;
8919;SDS011;4495;42.644;23.274;2024-03-17T14:46:22;10.07;;;5.30;;
8919;SDS011;4495;42.644;23.274;2024-03-17T14:48:51;10.70;;;5.05;;
8919;SDS011;4495;42.644;23.274;2024-03-17T14:51:17;9.52;;;5.13;;
8919;SDS011;4495;42.644;23.274;2024-03-17T14:53:43;10.60;;;5.07;;
8919;SDS011;4495;42.644;23.274;2024-03-17T14:56:15;8.88;;;5.30;;
8919;SDS011;4495;42.644;23.274;2024-03-17T14:58:41;12.23;;;6.00;;
8919;SDS011;4495;42.644;23.274;2024-03-17T15:01:08;9.18;;;5.15;;
8919;SDS011;4495;42.644;23.274;2024-03-17T15:03:34;10.13;;;5.40;;
8919;SDS011;4495;42.644;23.274;2024-03-17T15:06:00;8.38;;;4.80;;
8919;SDS011;4495;42.644;23.274;2024-03-17T15:08:25;11.55;;;6.50;;
8919;SDS011;4495;42.644;23.274;2024-03-17T15:10:51;9.10;;;6.00;;
8919;SDS011;4495;42.644;23.274;2024-03-17T15:13:19;9.95;;;4.18;;
8919;SDS011;4495;42.644;23.274;2024-03-17T15:15:45;7.85;;;4.32;;